createdAt,value
2023-03-28T00:02:15.549Z,96102.34
2023-03-28T00:04:42.595Z,96091.63
2023-03-28T00:07:09.692Z,96080.88
2023-03-28T00:09:37.639Z,96076.84
2023-03-28T00:12:04.985Z,96076.34
2023-03-28T00:14:32.036Z,96084.16
2023-03-28T00:17:02.080Z,96073.41
2023-03-28T00:19:33.284Z,96079.63
2023-03-28T00:22:00.389Z,96084.38
2023-03-28T00:24:28.138Z,96074.28
2023-03-28T00:26:55.255Z,96092.22
2023-03-28T00:29:23.319Z,96090.72
2023-03-28T00:31:51.649Z,96092.53
2023-03-28T00:34:18.944Z,96112.13
2023-03-28T00:36:46.117Z,96112.94
2023-03-28T00:39:13.587Z,96122.41
2023-03-28T00:41:43.642Z,96131.38
2023-03-28T00:44:47.681Z,96139.69
2023-03-28T00:47:36.908Z,96137.25
2023-03-28T00:50:07.289Z,96139.53
2023-03-28T00:53:29.568Z,96135.47
2023-03-28T00:56:02.495Z,96130.38
2023-03-28T00:58:33.820Z,96127.13
2023-03-28T01:01:01.605Z,96109.06
2023-03-28T01:03:34.734Z,96109.88
2023-03-28T01:06:06.411Z,96092.91
2023-03-28T01:08:41.304Z,96116.22
2023-03-28T01:11:11.554Z,96096.50
2023-03-28T01:13:44.237Z,96092.41
2023-03-28T01:16:21.209Z,96116.72
2023-03-28T01:18:52.900Z,96111.34
2023-03-28T01:21:40.091Z,96121.88
2023-03-28T01:24:34.603Z,96118.97
2023-03-28T01:27:01.585Z,96135.91
2023-03-28T01:29:45.332Z,96151.72
2023-03-28T01:32:35.943Z,96143.56
2023-03-28T01:35:29.295Z,96162.66
2023-03-28T01:38:33.244Z,96154.50
2023-03-28T01:41:06.514Z,96155.69
2023-03-28T01:44:34.187Z,96155.19
2023-03-28T01:47:31.038Z,96152.03
2023-03-28T01:50:09.001Z,96143.91
2023-03-28T01:52:46.083Z,96152.69
2023-03-28T01:55:21.949Z,96154.34
2023-03-28T01:58:05.655Z,96154.34
2023-03-28T02:00:46.172Z,96157.09
2023-03-28T02:03:36.710Z,96160.84
2023-03-28T02:06:15.259Z,96160.50
2023-03-28T02:08:46.506Z,96160.19
2023-03-28T02:11:19.490Z,96160.69
2023-03-28T02:14:02.484Z,96164.28
2023-03-28T02:17:33.723Z,96176.16
2023-03-28T02:20:12.624Z,96171.25
2023-03-28T02:23:07.886Z,96166.47
2023-03-28T02:25:55.244Z,96168.09
2023-03-28T02:28:45.129Z,96180.75
2023-03-28T02:31:28.123Z,96192.78
2023-03-28T02:33:56.865Z,96193.44
2023-03-28T02:36:31.844Z,96206.63
2023-03-28T02:39:07.642Z,96228.72
2023-03-28T02:41:49.412Z,96229.19
2023-03-28T02:44:45.401Z,96223.06
2023-03-28T02:47:19.637Z,96232.91
2023-03-28T02:49:50.660Z,96233.63
2023-03-28T02:52:35.216Z,96245.25
2023-03-28T02:55:10.287Z,96230.06
2023-03-28T02:58:00.560Z,96248.50
2023-03-28T03:00:27.826Z,96252.50
2023-03-28T03:02:55.024Z,96249.31
2023-03-28T03:05:22.642Z,96255.28
2023-03-28T03:07:50.630Z,96260.22
2023-03-28T03:10:18.271Z,96279.25
2023-03-28T03:12:47.487Z,96290.91
2023-03-28T03:15:17.291Z,96288.91
2023-03-28T03:17:53.863Z,96300.97
2023-03-28T03:20:26.932Z,96307.41
2023-03-28T03:22:55.220Z,96314.31
2023-03-28T03:25:22.443Z,96322.69
2023-03-28T03:27:56.213Z,96322.69
2023-03-28T03:30:23.772Z,96330.63
2023-03-28T03:33:17.004Z,96333.94
2023-03-28T03:35:46.950Z,96326.47
2023-03-28T03:38:15.928Z,96313.50
2023-03-28T03:40:42.925Z,96302.22
2023-03-28T03:43:11.364Z,96305.91
2023-03-28T03:45:40.843Z,96298.81
2023-03-28T03:48:09.418Z,96289.16
2023-03-28T03:50:37.737Z,96271.53
2023-03-28T03:53:11.700Z,96264.03
2023-03-28T03:55:46.944Z,96280.59
2023-03-28T03:58:14.142Z,96272.25
2023-03-28T04:00:44.814Z,96286.34
2023-03-28T04:03:27.204Z,96312.28
2023-03-28T04:05:56.504Z,96309.69
2023-03-28T04:08:24.036Z,96315.00
2023-03-28T04:10:51.219Z,96335.59
2023-03-28T04:13:18.267Z,96352.53
2023-03-28T04:15:51.887Z,96353.50
2023-03-28T04:18:21.961Z,96368.25
2023-03-28T04:20:55.362Z,96377.81
2023-03-28T04:23:43.762Z,96381.91
2023-03-28T04:26:30.125Z,96394.72
2023-03-28T04:29:05.350Z,96391.19
2023-03-28T04:31:39.076Z,96408.13
2023-03-28T04:34:30.262Z,96421.22
2023-03-28T04:37:18.111Z,96424.78
2023-03-28T04:39:54.345Z,96418.38
2023-03-28T04:42:47.109Z,96429.16
2023-03-28T04:45:40.281Z,96432.59
2023-03-28T04:48:14.812Z,96457.28
2023-03-28T04:50:43.563Z,96446.78
2023-03-28T04:53:14.224Z,96450.75
2023-03-28T04:56:00.342Z,96456.63
2023-03-28T04:58:29.173Z,96462.63
2023-03-28T05:00:56.475Z,96466.59
2023-03-28T05:03:42.463Z,96470.13
2023-03-28T05:06:09.804Z,96479.56
2023-03-28T05:08:37.294Z,96483.38
2023-03-28T05:11:04.616Z,96492.78
2023-03-28T05:13:31.633Z,96479.41
2023-03-28T05:16:09.380Z,96487.63
2023-03-28T05:18:59.067Z,96490.47
2023-03-28T05:21:46.513Z,96493.50
2023-03-28T05:24:13.563Z,96494.59
2023-03-28T05:26:40.626Z,96494.72
2023-03-28T05:29:08.894Z,96484.88
2023-03-28T05:31:35.976Z,96480.50
2023-03-28T05:34:17.059Z,96470.97
2023-03-28T05:36:47.070Z,96481.34
2023-03-28T05:39:26.682Z,96492.66
2023-03-28T05:42:00.690Z,96489.41
2023-03-28T05:44:27.855Z,96501.56
2023-03-28T05:47:14.828Z,96497.31
2023-03-28T05:49:41.921Z,96500.75
2023-03-28T05:52:10.559Z,96530.13
2023-03-28T05:54:38.847Z,96525.47
2023-03-28T05:57:06.380Z,96523.97
2023-03-28T05:59:33.438Z,96525.63
2023-03-28T06:02:03.488Z,96533.66
2023-03-28T06:04:30.789Z,96536.94
2023-03-28T06:06:57.963Z,96501.53
2023-03-28T06:09:27.257Z,96492.53
2023-03-28T06:11:59.031Z,96473.94
2023-03-28T06:14:26.926Z,96475.88
2023-03-28T06:16:56.896Z,96481.34
2023-03-28T06:19:26.431Z,96472.19
2023-03-28T06:21:55.508Z,96472.59
2023-03-28T06:24:22.829Z,96482.97
2023-03-28T06:26:50.540Z,96455.53
2023-03-28T06:29:21.916Z,96485.72
2023-03-28T06:31:53.074Z,96472.31
2023-03-28T06:34:21.235Z,96471.91
2023-03-28T06:36:56.514Z,96483.25
2023-03-28T06:39:27.619Z,96470.44
2023-03-28T06:41:57.834Z,96488.72
2023-03-28T06:44:33.062Z,96474.25
2023-03-28T06:47:13.959Z,96483.13
2023-03-28T06:49:41.817Z,96466.56
2023-03-28T06:52:28.932Z,96491.47
2023-03-28T06:54:59.134Z,96477.53
2023-03-28T06:57:26.786Z,96502.22
2023-03-28T07:00:07.385Z,96497.03
2023-03-28T07:02:54.481Z,96482.84
2023-03-28T07:05:21.757Z,96498.28
2023-03-28T07:08:21.590Z,96472.59
2023-03-28T07:10:49.131Z,96462.34
2023-03-28T07:13:16.496Z,96461.41
2023-03-28T07:16:06.888Z,96476.81
2023-03-28T07:18:35.140Z,96472.84
2023-03-28T07:21:14.370Z,96467.13
2023-03-28T07:23:42.300Z,96472.59
2023-03-28T07:26:13.485Z,96493.91
2023-03-28T07:28:41.072Z,96502.91
2023-03-28T07:31:08.707Z,96503.72
2023-03-28T07:33:38.172Z,96514.94
2023-03-28T07:36:16.363Z,96510.28
2023-03-28T07:38:48.926Z,96518.91
2023-03-28T07:41:18.202Z,96531.63
2023-03-28T07:43:45.839Z,96534.63
2023-03-28T07:46:15.173Z,96539.94
2023-03-28T07:48:43.370Z,96554.56
2023-03-28T07:51:11.482Z,96581.25
2023-03-28T07:53:39.307Z,96583.25
2023-03-28T07:56:11.954Z,96580.97
2023-03-28T07:59:14.827Z,96586.59
2023-03-28T08:01:45.745Z,96609.69
2023-03-28T08:04:14.158Z,96622.38
2023-03-28T08:06:58.228Z,96622.13
2023-03-28T08:09:25.472Z,96634.03
2023-03-28T08:12:03.592Z,96652.75
2023-03-28T08:14:30.806Z,96668.72
2023-03-28T08:16:58.287Z,96671.75
2023-03-28T08:19:25.805Z,96684.22
2023-03-28T08:22:12.577Z,96686.69
2023-03-28T08:24:52.647Z,96693.38
2023-03-28T08:27:22.938Z,96702.00
2023-03-28T08:29:53.763Z,96719.09
2023-03-28T08:32:21.018Z,96721.56
2023-03-28T08:34:48.484Z,96723.88
2023-03-28T08:37:18.173Z,96721.94
2023-03-28T08:39:48.693Z,96739.59
2023-03-28T08:42:36.451Z,96735.88
2023-03-28T08:45:04.474Z,96749.59
2023-03-28T08:47:33.406Z,96746.81
2023-03-28T08:50:14.870Z,96759.00
2023-03-28T08:52:43.737Z,96765.22
2023-03-28T08:55:28.334Z,96758.38
2023-03-28T08:57:56.471Z,96775.44
2023-03-28T09:00:31.399Z,96767.25
2023-03-28T09:02:59.416Z,96773.03
2023-03-28T09:05:38.678Z,96780.19
2023-03-28T09:08:29.182Z,96768.69
2023-03-28T09:11:09.122Z,96766.03
2023-03-28T09:14:00.536Z,96763.03
2023-03-28T09:16:52.401Z,96769.69
2023-03-28T09:19:44.878Z,96766.94
2023-03-28T09:23:11.223Z,96772.06
2023-03-28T09:26:25.426Z,96773.59
2023-03-28T09:29:21.351Z,96774.69
2023-03-28T09:32:57.689Z,96782.41
2023-03-28T09:35:28.204Z,96768.63
2023-03-28T09:38:05.050Z,96772.28
2023-03-28T09:40:35.058Z,96776.06
2023-03-28T09:43:59.526Z,96787.88
2023-03-28T10:17:45.905Z,96890.75
2023-03-28T10:20:24.978Z,96904.72
2023-03-28T10:22:57.262Z,96917.41
2023-03-28T10:25:42.612Z,96915.91
2023-03-28T10:28:17.841Z,96925.38
2023-03-28T10:30:54.125Z,96920.28
2023-03-28T10:33:28.058Z,96924.53
2023-03-28T10:36:30.019Z,96922.88
2023-03-28T10:39:00.152Z,96932.75
2023-03-28T10:42:05.866Z,96931.75
2023-03-28T10:45:00.969Z,96929.00
2023-03-28T10:47:31.572Z,96936.84
2023-03-28T10:50:03.944Z,96933.72
2023-03-28T10:52:47.684Z,96945.63
2023-03-28T10:55:26.547Z,96937.44
2023-03-28T10:58:25.651Z,96956.69
2023-03-28T11:01:08.880Z,96965.31
2023-03-28T11:03:50.643Z,96971.91
2023-03-28T11:06:26.457Z,96974.38
2023-03-28T11:09:08.127Z,96981.78
2023-03-28T11:12:27.940Z,96976.16
2023-03-28T11:15:09.849Z,96976.44
2023-03-28T11:17:45.756Z,96975.09
2023-03-28T11:20:22.682Z,96977.19
2023-03-28T11:23:10.055Z,96978.84
2023-03-28T11:26:17.236Z,96967.59
2023-03-28T11:29:43.688Z,96978.16
2023-03-28T11:32:45.896Z,96974.75
2023-03-28T11:35:29.152Z,96988.72
2023-03-28T11:38:02.695Z,96984.78
2023-03-28T11:40:37.760Z,96987.94
2023-03-28T11:43:13.742Z,96982.75
2023-03-28T11:45:51.937Z,96980.00
2023-03-28T11:48:55.357Z,96980.53
2023-03-28T11:51:36.510Z,96987.91
2023-03-28T11:54:16.394Z,96992.88
2023-03-28T11:57:02.794Z,97002.97
2023-03-28T11:59:43.293Z,97009.56
2023-03-28T12:02:35.839Z,97020.78
2023-03-28T12:05:19.450Z,97020.38
2023-03-28T12:08:10.646Z,97018.28
2023-03-28T12:10:43.215Z,97012.09
2023-03-28T12:13:41.732Z,97021.81
2023-03-28T12:16:17.878Z,97018.56
2023-03-28T12:18:50.687Z,97021.03
2023-03-28T12:21:41.694Z,97021.31
2023-03-28T12:24:38.096Z,97023.88
2023-03-28T12:27:33.868Z,97046.34
2023-03-28T12:30:21.444Z,97041.81
2023-03-28T12:32:56.617Z,97052.88
2023-03-28T12:36:10.647Z,97060.78
2023-03-28T12:38:57.929Z,97060.53
2023-03-28T12:41:40.421Z,97064.81
2023-03-28T12:44:12.956Z,97066.50
2023-03-28T12:46:55.974Z,97070.56
2023-03-28T12:49:46.092Z,97065.59
2023-03-28T12:52:28.697Z,97071.03
2023-03-28T12:55:03.057Z,97066.84
2023-03-28T12:57:48.555Z,97072.59
2023-03-28T13:05:17.314Z,97084.72
2023-03-28T13:08:14.837Z,97090.72
2023-03-28T13:10:57.765Z,97094.13
2023-03-28T13:13:44.289Z,97096.22
2023-03-28T13:16:21.993Z,97098.69
2023-03-28T13:19:06.759Z,97098.06
2023-03-28T13:22:00.427Z,97104.88
2023-03-28T13:24:36.352Z,97102.75
2023-03-28T13:27:30.767Z,97105.97
2023-03-28T13:30:07.844Z,97122.56
2023-03-28T13:32:40.913Z,97109.34
2023-03-28T13:35:28.158Z,97112.09
2023-03-28T13:37:55.176Z,97109.75
2023-03-28T13:40:50.820Z,97125.00
2023-03-28T13:43:36.466Z,97125.09
2023-03-28T13:46:18.977Z,97134.06
2023-03-28T13:49:13.532Z,97121.94
2023-03-28T13:51:45.113Z,97133.56
2023-03-28T13:54:12.693Z,97147.81
2023-03-28T13:56:44.570Z,97145.56
2023-03-28T13:59:18.350Z,97141.66
2023-03-28T14:01:47.625Z,97130.59
2023-03-28T14:04:26.458Z,97132.16
2023-03-28T14:06:55.005Z,97141.72
2023-03-28T14:09:32.496Z,97159.63
2023-03-28T14:12:05.110Z,97168.34
2023-03-28T14:14:48.468Z,97184.38
2023-03-28T14:17:18.729Z,97191.13
2023-03-28T14:19:54.165Z,97203.03
2023-03-28T14:22:26.286Z,97207.72
2023-03-28T14:24:58.030Z,97217.06
2023-03-28T14:27:27.674Z,97219.66
2023-03-28T14:29:56.872Z,97229.44
2023-03-28T14:32:33.088Z,97226.38
2023-03-28T14:35:30.914Z,97240.53
2023-03-28T14:38:00.998Z,97234.44
2023-03-28T14:40:34.734Z,97234.31
2023-03-28T14:43:04.575Z,97233.94
2023-03-28T14:45:37.665Z,97251.50
2023-03-28T14:48:14.329Z,97256.09
2023-03-28T14:50:42.045Z,97268.59
2023-03-28T14:53:17.295Z,97272.13
2023-03-28T14:55:46.616Z,97278.25
2023-03-28T14:58:14.218Z,97276.38
2023-03-28T15:00:44.074Z,97272.63
2023-03-28T15:03:32.265Z,97278.28
2023-03-28T15:06:01.127Z,97285.41
2023-03-28T15:08:37.025Z,97284.44
2023-03-28T15:11:33.750Z,97284.19
2023-03-28T15:14:21.948Z,97292.59
2023-03-28T15:16:49.247Z,97286.72
2023-03-28T15:19:28.466Z,97288.34
2023-03-28T15:21:59.021Z,97288.69
2023-03-28T15:24:28.345Z,97294.72
2023-03-28T15:27:01.734Z,97299.69
2023-03-28T15:29:33.551Z,97301.47
2023-03-28T15:32:16.833Z,97300.59
2023-03-28T15:34:46.718Z,97306.16
2023-03-28T15:37:18.663Z,97307.00
2023-03-28T15:39:49.575Z,97310.28
2023-03-28T15:42:19.677Z,97310.66
2023-03-28T15:44:58.787Z,97319.16
2023-03-28T15:47:34.478Z,97324.94
2023-03-28T15:50:07.642Z,97334.50
2023-03-28T15:52:35.887Z,97327.78
2023-03-28T15:55:05.831Z,97330.13
2023-03-28T15:57:33.203Z,97325.69
2023-03-28T16:00:01.311Z,97328.16
2023-03-28T16:02:28.453Z,97328.63
2023-03-28T16:05:02.460Z,97330.75
2023-03-28T16:07:35.288Z,97335.00
2023-03-28T16:10:02.482Z,97348.91
2023-03-28T16:12:31.362Z,97353.28
2023-03-28T16:15:19.733Z,97350.69
2023-03-28T16:17:56.209Z,97362.50
2023-03-28T16:20:52.296Z,97372.97
2023-03-28T16:23:19.333Z,97367.28
2023-03-28T16:25:46.790Z,97371.56
2023-03-28T16:28:18.509Z,97371.56
2023-03-28T16:30:46.299Z,97369.28
2023-03-28T16:33:14.161Z,97369.50
2023-03-28T16:35:41.294Z,97375.44
2023-03-28T16:38:11.775Z,97387.69
2023-03-28T16:40:39.040Z,97392.88
2023-03-28T16:43:08.022Z,97401.94
2023-03-28T16:45:35.626Z,97414.09
2023-03-28T16:48:02.898Z,97414.91
2023-03-28T16:50:30.128Z,97424.34
2023-03-28T16:52:57.131Z,97416.47
2023-03-28T16:55:24.066Z,97429.22
2023-03-28T16:57:51.356Z,97430.16
2023-03-28T17:00:23.062Z,97433.69
2023-03-28T17:02:50.236Z,97435.97
2023-03-28T17:05:17.676Z,97428.25
2023-03-28T17:07:44.768Z,97447.38
2023-03-28T17:10:12.241Z,97438.88
2023-03-28T17:12:39.187Z,97443.47
2023-03-28T17:15:06.817Z,97451.03
2023-03-28T17:17:33.916Z,97444.91
2023-03-28T17:20:01.428Z,97459.53
2023-03-28T17:22:28.490Z,97455.03
2023-03-28T17:24:57.350Z,97463.56
2023-03-28T17:27:24.394Z,97462.00
2023-03-28T17:29:51.938Z,97468.75
2023-03-28T17:32:19.086Z,97472.06
2023-03-28T17:34:46.449Z,97473.97
2023-03-28T17:37:13.647Z,97466.16
2023-03-28T17:39:41.056Z,97484.34
2023-03-28T17:42:09.199Z,97489.25
2023-03-28T17:44:36.275Z,97488.09
2023-03-28T17:47:03.419Z,97498.25
2023-03-28T17:49:30.495Z,97499.28
2023-03-28T17:51:57.573Z,97510.50
2023-03-28T17:54:24.719Z,97503.53
2023-03-28T17:56:52.631Z,97514.03
2023-03-28T17:59:20.046Z,97519.56
2023-03-28T18:01:47.227Z,97519.47
2023-03-28T18:04:16.283Z,97538.56
2023-03-28T18:07:16.221Z,97545.88
2023-03-28T18:09:44.993Z,97548.13
2023-03-28T18:12:12.827Z,97554.03
2023-03-28T18:14:40.034Z,97552.59
2023-03-28T18:17:07.007Z,97552.81
2023-03-28T18:19:34.053Z,97551.25
2023-03-28T18:22:01.835Z,97551.59
2023-03-28T18:24:28.957Z,97565.38
2023-03-28T18:26:56.022Z,97559.59
2023-03-28T18:29:23.306Z,97563.53
2023-03-28T18:31:50.473Z,97575.94
2023-03-28T18:34:17.618Z,97584.28
2023-03-28T18:36:45.626Z,97590.97
2023-03-28T18:39:12.747Z,97602.69
2023-03-28T18:41:40.046Z,97613.00
2023-03-28T18:44:07.168Z,97616.47
2023-03-28T18:46:34.598Z,97612.44
2023-03-28T18:49:01.955Z,97623.16
2023-03-28T18:51:29.172Z,97614.75
2023-03-28T18:53:56.831Z,97628.34
2023-03-28T18:56:23.924Z,97619.66
2023-03-28T18:58:51.052Z,97629.06
2023-03-28T19:01:18.901Z,97624.00
2023-03-28T19:03:47.211Z,97636.66
2023-03-28T19:06:15.826Z,97627.63
2023-03-28T19:08:44.893Z,97618.50
2023-03-28T19:11:14.859Z,97640.28
2023-03-28T19:13:42.646Z,97632.53
2023-03-28T19:16:15.181Z,97628.09
2023-03-28T19:18:44.564Z,97628.91
2023-03-28T19:21:12.131Z,97636.97
2023-03-28T19:23:39.496Z,97638.19
2023-03-28T19:26:08.332Z,97640.00
2023-03-28T19:28:36.081Z,97645.13
2023-03-28T19:31:06.559Z,97649.16
2023-03-28T19:33:34.068Z,97648.31
2023-03-28T19:36:01.414Z,97648.97
2023-03-28T19:38:31.056Z,97648.16
2023-03-28T19:41:03.430Z,97657.19
2023-03-28T19:43:31.183Z,97661.81
2023-03-28T19:46:07.221Z,97665.03
2023-03-28T19:48:35.105Z,97664.56
2023-03-28T19:51:02.316Z,97660.66
2023-03-28T19:53:29.439Z,97666.28
2023-03-28T19:55:59.453Z,97668.38
2023-03-28T19:58:28.341Z,97676.63
2023-03-28T20:00:58.896Z,97693.72
2023-03-28T20:03:26.023Z,97684.28
2023-03-28T20:05:53.414Z,97686.03
2023-03-28T20:08:21.675Z,97699.94
2023-03-28T20:10:52.645Z,97695.66
2023-03-28T20:13:19.918Z,97707.69
2023-03-28T20:15:47.477Z,97710.28
2023-03-28T20:18:20.181Z,97708.69
2023-03-28T20:20:58.587Z,97720.81
2023-03-28T20:23:27.557Z,97721.47
2023-03-28T20:25:55.517Z,97728.19
2023-03-28T20:28:26.447Z,97725.25
2023-03-28T20:30:54.359Z,97730.34
2023-03-28T20:33:21.915Z,97734.13
2023-03-28T20:35:58.891Z,97749.00
2023-03-28T20:38:28.043Z,97751.03
2023-03-28T20:40:55.048Z,97757.72
2023-03-28T20:43:24.232Z,97754.19
2023-03-28T20:45:53.969Z,97768.88
2023-03-28T20:48:34.487Z,97768.88
2023-03-28T20:51:03.374Z,97770.28
2023-03-28T20:53:31.274Z,97776.66
2023-03-28T20:56:04.134Z,97767.31
2023-03-28T20:58:32.545Z,97769.19
2023-03-28T21:01:01.496Z,97770.19
2023-03-28T21:03:39.525Z,97769.34
2023-03-28T21:06:07.825Z,97772.75
2023-03-28T21:08:36.474Z,97765.00
2023-03-28T21:11:03.885Z,97767.59
2023-03-28T21:13:31.366Z,97753.19
2023-03-28T21:15:58.639Z,97756.88
2023-03-28T21:18:26.222Z,97768.88
2023-03-28T21:20:53.264Z,97764.47
2023-03-28T21:23:20.324Z,97769.72
2023-03-28T21:25:52.137Z,97768.53
2023-03-28T21:28:19.812Z,97772.75
2023-03-28T21:30:57.609Z,97776.28
2023-03-28T21:33:24.788Z,97774.34
2023-03-28T21:35:52.435Z,97772.31
2023-03-28T21:38:19.711Z,97780.38
2023-03-28T21:40:48.038Z,97775.66
2023-03-28T21:43:15.977Z,97775.28
2023-03-28T21:45:49.621Z,97776.66
2023-03-28T21:48:17.198Z,97776.00
2023-03-28T21:50:59.304Z,97770.09
2023-03-28T21:53:28.902Z,97779.63
2023-03-28T21:55:56.558Z,97776.28
2023-03-28T21:58:23.993Z,97788.94
2023-03-28T22:00:51.125Z,97792.44
2023-03-28T22:03:19.104Z,97792.44
2023-03-28T22:05:46.451Z,97791.53
2023-03-28T22:08:13.799Z,97800.75
2023-03-28T22:10:46.704Z,97796.47
2023-03-28T22:13:14.324Z,97792.13
2023-03-28T22:15:41.890Z,97795.47
2023-03-28T22:18:09.671Z,97792.88
2023-03-28T22:20:39.323Z,97799.81
2023-03-28T22:23:07.236Z,97803.34
2023-03-28T22:25:38.753Z,97809.19
2023-03-28T22:28:09.440Z,97818.69
2023-03-28T22:30:39.251Z,97816.03
2023-03-28T22:33:09.826Z,97813.91
2023-03-28T22:35:38.389Z,97821.56
2023-03-28T22:38:05.882Z,97816.69
2023-03-28T22:40:33.377Z,97822.69
2023-03-28T22:43:00.685Z,97820.38
2023-03-28T22:45:28.055Z,97816.28
2023-03-28T22:47:58.495Z,97818.88
2023-03-28T22:50:26.138Z,97822.94
2023-03-28T22:52:53.287Z,97831.09
2023-03-28T22:55:23.052Z,97822.22
2023-03-28T22:57:51.776Z,97824.72
2023-03-28T23:00:22.352Z,97821.22
2023-03-28T23:02:50.462Z,97813.38
2023-03-28T23:05:18.011Z,97800.97
2023-03-28T23:07:45.046Z,97803.28
2023-03-28T23:10:18.159Z,97801.16
2023-03-28T23:12:46.168Z,97800.88
2023-03-28T23:15:13.596Z,97807.59
2023-03-28T23:17:40.871Z,97818.50
2023-03-28T23:20:15.980Z,97819.91
2023-03-28T23:22:45.925Z,97825.84
2023-03-28T23:25:15.049Z,97831.75
2023-03-28T23:27:43.247Z,97833.59
2023-03-28T23:30:11.926Z,97827.59
2023-03-28T23:32:39.594Z,97838.22
2023-03-28T23:35:07.473Z,97843.59
2023-03-28T23:37:38.408Z,97842.59
2023-03-28T23:40:10.685Z,97840.91
2023-03-28T23:42:37.878Z,97845.78
2023-03-28T23:45:05.240Z,97848.94
2023-03-28T23:47:32.338Z,97854.56
2023-03-28T23:49:59.371Z,97857.53
2023-03-28T23:52:26.478Z,97860.16
2023-03-28T23:54:53.597Z,97861.44
2023-03-28T23:57:20.783Z,97854.50
2023-03-28T23:59:47.839Z,97858.19
